INFORMAÇÕES METEOROLÓGICAS
METAR FOR SBIP
ADDS - METARS form results

(1141 UTC 18 July 2019)
Data provider http://aviationweather.gov/metar/data/
 
METAR text: SBIP 181100Z 20005KT 9999 SCT025 17/13 Q1026
Conditions at: SBIP (USIMINAS/PARAISO, BR) observed 1100 UTC 18 July 2019
Temperature: 17.0°C (63°F)
Dewpoint: 13.0°C (55°F) [RH = 77%]
Pressure (altimeter): 30.30 inches Hg (1026.0 mb)
Winds: from the SSW (200 degrees) at 6 MPH (5 knots; 2.6 m/s)
Visibility: 6 or more miles (10+ km)
Ceiling: at least 12,000 feet AGL
Clouds: scattered clouds at 2500 feet AGL
Weather: no significant weather observed at this time

 MAPA DO AEROPORTO

 INFORMAÇÕES DA PISTA
Pista 5 Tamanho da pista 6575 ft Largura da pista 148 ft
Elevação da pista 0 ft Ranhura da pista 0 ft Proa da pista 0
Pista 23 Tamanho da pista 6575 ft Largura da pista 148 ft
Elevação da pista 0 ft Ranhura da pista 0 ft Proa da pista 0

 FREQUÊNCIAS DO AEROPORTO
Tipo AFIS Nome RDO Frequência 130 MHZ

 AUXÍLIOS DE NAVEGAÇÃO PRÓXIMOS AO AEROPORTO
Tipo NDB Nome Usiminas Frequência 162 KHZ





Powered by Virtual Airlines Manager [v2.6.2]